createdAt,value
2023-05-16T00:00:53.438Z,4.00
2023-05-16T00:03:21.458Z,3.10
2023-05-16T00:05:48.883Z,2.90
2023-05-16T00:08:16.328Z,4.18
2023-05-16T00:10:44.066Z,5.05
2023-05-16T00:13:11.257Z,5.07
2023-05-16T00:15:38.986Z,3.20
2023-05-16T00:18:06.510Z,3.33
2023-05-16T00:20:34.940Z,4.53
2023-05-16T00:23:02.314Z,3.78
2023-05-16T00:25:29.594Z,4.65
2023-05-16T00:27:57.069Z,3.50
2023-05-16T00:30:24.630Z,3.45
2023-05-16T00:32:52.480Z,4.07
2023-05-16T00:35:19.768Z,4.15
2023-05-16T00:37:47.005Z,3.00
2023-05-16T00:40:15.512Z,3.38
2023-05-16T00:45:10.862Z,3.53
2023-05-16T00:47:38.122Z,3.15
2023-05-16T00:50:06.931Z,3.50
2023-05-16T00:52:34.472Z,4.05
2023-05-16T00:55:04.210Z,3.75
2023-05-16T00:57:33.283Z,4.30
2023-05-16T01:00:00.700Z,3.08
2023-05-16T01:02:29.708Z,3.08
2023-05-16T01:04:57.417Z,4.13
2023-05-16T01:07:24.724Z,3.33
2023-05-16T01:09:52.306Z,4.93
2023-05-16T01:12:48.908Z,3.03
2023-05-16T01:15:24.013Z,4.78
2023-05-16T01:18:02.385Z,5.72
2023-05-16T01:20:49.561Z,3.60
2023-05-16T01:23:59.298Z,5.00
2023-05-16T01:26:28.630Z,3.38
2023-05-16T01:28:56.543Z,3.97
2023-05-16T01:31:24.560Z,5.20
2023-05-16T01:33:52.261Z,7.28
2023-05-16T01:36:55.289Z,4.88
2023-05-16T01:39:25.540Z,3.95
2023-05-16T01:42:00.072Z,3.67
2023-05-16T01:44:35.530Z,5.55
2023-05-16T01:47:10.002Z,3.67
2023-05-16T01:49:45.724Z,6.03
2023-05-16T01:52:19.863Z,6.70
2023-05-16T01:54:49.670Z,3.78
2023-05-16T01:57:18.240Z,3.90
2023-05-16T01:59:47.193Z,4.50
2023-05-16T02:02:14.517Z,3.58
2023-05-16T02:04:41.785Z,4.05
2023-05-16T02:07:09.346Z,4.10
2023-05-16T02:09:38.480Z,4.95
2023-05-16T02:12:08.057Z,3.72
2023-05-16T02:14:35.275Z,4.13
2023-05-16T02:17:02.639Z,5.18
2023-05-16T02:19:30.064Z,5.45
2023-05-16T02:21:57.559Z,6.25
2023-05-16T02:24:24.788Z,3.70
2023-05-16T02:26:52.351Z,4.72
2023-05-16T02:29:19.633Z,4.05
2023-05-16T02:31:47.371Z,5.05
2023-05-16T02:34:15.120Z,5.82
2023-05-16T02:36:43.000Z,6.43
2023-05-16T02:39:10.763Z,4.40
2023-05-16T02:41:38.097Z,6.82
2023-05-16T02:44:05.832Z,6.43
2023-05-16T02:46:37.144Z,5.80
2023-05-16T02:49:04.694Z,7.18
2023-05-16T02:51:32.018Z,6.10
2023-05-16T02:54:01.330Z,6.88
2023-05-16T02:56:28.720Z,6.13
2023-05-16T02:58:56.654Z,8.57
2023-05-16T03:01:24.342Z,6.95
2023-05-16T03:03:51.879Z,7.55
2023-05-16T03:06:19.322Z,7.63
2023-05-16T03:08:46.695Z,8.75
2023-05-16T03:11:15.167Z,7.82
2023-05-16T03:13:42.748Z,6.65
2023-05-16T03:16:10.093Z,7.93
2023-05-16T03:18:37.407Z,7.57
2023-05-16T03:21:05.764Z,9.27
2023-05-16T03:23:33.220Z,8.90
2023-05-16T03:26:00.686Z,9.57
2023-05-16T03:28:28.044Z,8.82
2023-05-16T03:30:55.593Z,8.85
2023-05-16T03:33:23.936Z,8.13
2023-05-16T03:35:52.447Z,6.55
2023-05-16T03:38:19.682Z,10.07
2023-05-16T03:40:48.718Z,6.53
2023-05-16T03:43:16.020Z,7.47
2023-05-16T03:45:43.657Z,7.15
2023-05-16T03:48:11.301Z,6.15
2023-05-16T03:50:40.327Z,5.60
2023-05-16T03:53:09.361Z,3.45
2023-05-16T03:55:36.747Z,6.55
2023-05-16T03:58:03.973Z,5.15
2023-05-16T04:00:31.272Z,4.57
2023-05-16T04:02:58.631Z,7.18
2023-05-16T04:05:26.299Z,3.55
2023-05-16T04:12:48.419Z,6.43
2023-05-16T04:15:15.722Z,5.40
2023-05-16T04:17:43.222Z,3.67
2023-05-16T04:20:11.118Z,2.97
2023-05-16T04:32:29.252Z,6.68
2023-05-16T04:34:56.630Z,5.90
2023-05-16T04:37:23.897Z,5.28
2023-05-16T04:39:51.783Z,2.67
2023-05-16T04:44:48.072Z,6.50
2023-05-16T04:47:15.510Z,5.45
2023-05-16T04:49:42.865Z,3.50
2023-05-16T04:52:10.246Z,3.03
2023-05-16T04:54:39.575Z,4.63
2023-05-16T04:57:07.506Z,3.83
2023-05-16T04:59:38.880Z,6.35
2023-05-16T05:02:07.984Z,4.55
2023-05-16T05:04:35.800Z,2.83
2023-05-16T05:07:03.492Z,3.80
2023-05-16T05:09:35.225Z,6.05
2023-05-16T05:12:18.836Z,3.50
2023-05-16T05:14:48.189Z,6.85
2023-05-16T05:17:16.967Z,3.88
2023-05-16T05:19:44.747Z,4.28
2023-05-16T05:22:13.806Z,9.15
2023-05-16T05:24:41.465Z,4.47
2023-05-16T05:27:08.957Z,6.00
2023-05-16T05:29:36.645Z,9.00
2023-05-16T05:32:04.602Z,6.45
2023-05-16T05:34:32.311Z,4.78
2023-05-16T05:37:00.324Z,5.10
2023-05-16T05:39:27.942Z,4.95
2023-05-16T05:41:59.746Z,3.10
2023-05-16T05:44:28.406Z,3.78
2023-05-16T05:46:59.847Z,7.72
2023-05-16T05:49:28.157Z,9.48
2023-05-16T05:51:56.436Z,8.07
2023-05-16T05:54:25.410Z,5.90
2023-05-16T05:56:53.021Z,4.60
2023-05-16T06:01:52.833Z,4.63
2023-05-16T06:04:24.622Z,3.88
2023-05-16T06:06:52.665Z,4.43
2023-05-16T06:09:21.930Z,5.82
2023-05-16T06:11:50.631Z,4.93
2023-05-16T06:14:18.267Z,4.45
2023-05-16T06:16:47.689Z,9.05
2023-05-16T06:19:16.777Z,10.43
2023-05-16T06:21:44.491Z,4.88
2023-05-16T06:24:12.911Z,3.70
2023-05-16T06:26:40.482Z,4.80
2023-05-16T06:29:09.429Z,4.43
2023-05-16T06:31:38.413Z,6.53
2023-05-16T06:34:08.221Z,5.90
2023-05-16T06:36:37.233Z,4.18
2023-05-16T06:39:08.307Z,3.33
2023-05-16T06:41:36.149Z,5.43
2023-05-16T06:44:05.862Z,3.63
2023-05-16T06:46:34.868Z,6.72
2023-05-16T06:49:03.747Z,4.85
2023-05-16T06:51:31.953Z,7.70
2023-05-16T06:54:04.076Z,6.15
2023-05-16T06:56:32.057Z,2.92
2023-05-16T06:59:02.168Z,4.25
2023-05-16T07:01:30.040Z,2.08
2023-05-16T07:04:02.667Z,6.22
2023-05-16T07:06:33.029Z,3.05
2023-05-16T07:09:01.606Z,3.03
2023-05-16T07:11:29.252Z,5.70
2023-05-16T07:13:56.904Z,3.80
2023-05-16T07:16:24.584Z,5.35
2023-05-16T07:21:20.229Z,3.00
2023-05-16T07:23:47.959Z,2.42
2023-05-16T07:26:15.660Z,8.50
2023-05-16T07:28:44.107Z,3.13
2023-05-16T07:31:12.269Z,4.80
2023-05-16T07:33:41.318Z,4.00
2023-05-16T07:36:16.773Z,4.00
2023-05-16T07:38:49.922Z,6.40
2023-05-16T07:41:22.122Z,3.10
2023-05-16T07:43:51.360Z,2.97
2023-05-16T07:46:35.713Z,3.10
2023-05-16T07:49:05.126Z,5.32
2023-05-16T07:51:36.658Z,5.22
2023-05-16T07:54:04.386Z,4.95
2023-05-16T07:56:32.028Z,4.60
2023-05-16T07:59:09.878Z,6.43
2023-05-16T08:01:41.745Z,6.82
2023-05-16T08:04:10.246Z,3.13
2023-05-16T08:06:38.003Z,6.43
2023-05-16T08:11:34.823Z,5.82
2023-05-16T08:14:02.429Z,4.55
2023-05-16T08:16:30.085Z,6.85
2023-05-16T08:21:26.533Z,4.15
2023-05-16T08:23:54.944Z,4.68
2023-05-16T08:26:39.675Z,6.43
2023-05-16T08:29:34.791Z,2.85
2023-05-16T08:32:03.716Z,4.95
2023-05-16T08:34:34.363Z,5.53
2023-05-16T08:37:02.064Z,5.00
2023-05-16T08:42:00.434Z,4.32
2023-05-16T08:44:29.413Z,4.28
2023-05-16T08:47:11.324Z,3.85
2023-05-16T08:49:41.864Z,2.60
2023-05-16T08:52:11.192Z,4.68
2023-05-16T08:54:40.390Z,4.57
2023-05-16T08:57:10.623Z,3.35
2023-05-16T08:59:39.938Z,4.65
2023-05-16T09:02:09.912Z,5.82
2023-05-16T09:04:41.707Z,4.25
2023-05-16T09:07:09.179Z,3.20
2023-05-16T09:09:38.120Z,6.03
2023-05-16T09:12:05.663Z,6.28
2023-05-16T09:14:33.312Z,3.15
2023-05-16T09:20:18.847Z,4.75
2023-05-16T09:22:54.862Z,3.10
2023-05-16T09:28:03.139Z,4.22
2023-05-16T09:30:40.107Z,3.03
2023-05-16T09:33:08.468Z,5.75
2023-05-16T09:35:45.355Z,6.43
2023-05-16T09:38:18.453Z,4.53
2023-05-16T09:40:47.522Z,5.95
2023-05-16T09:43:17.647Z,7.65
2023-05-16T09:45:49.598Z,10.70
2023-05-16T09:48:18.986Z,2.78
2023-05-16T09:50:53.644Z,5.45
2023-05-16T09:53:32.826Z,4.88
2023-05-16T09:56:14.372Z,5.40
2023-05-16T09:58:43.927Z,10.27
2023-05-16T10:01:12.007Z,4.38
2023-05-16T10:03:42.844Z,5.03
2023-05-16T10:06:29.548Z,5.45
2023-05-16T10:08:57.219Z,4.35
2023-05-16T10:11:30.756Z,2.50
2023-05-16T10:14:01.907Z,4.63
2023-05-16T10:16:29.759Z,3.28
2023-05-16T10:18:57.853Z,3.40
2023-05-16T10:21:28.860Z,4.20
2023-05-16T10:23:59.037Z,8.10
2023-05-16T10:26:28.128Z,4.75
2023-05-16T10:28:56.726Z,3.83
2023-05-16T10:31:25.143Z,4.47
2023-05-16T10:33:53.657Z,2.88
2023-05-16T10:36:25.434Z,4.95
2023-05-16T10:38:54.357Z,7.38
2023-05-16T10:41:22.363Z,5.30
2023-05-16T10:44:03.232Z,4.95
2023-05-16T10:46:32.475Z,5.30
2023-05-16T10:49:20.173Z,2.90
2023-05-16T10:52:03.491Z,3.70
2023-05-16T10:54:41.030Z,2.80
2023-05-16T10:57:23.043Z,4.45
2023-05-16T10:59:56.617Z,3.40
2023-05-16T11:02:33.193Z,2.88
2023-05-16T11:05:11.974Z,3.47
2023-05-16T11:08:04.657Z,5.15
2023-05-16T11:10:32.929Z,4.22
2023-05-16T11:13:08.381Z,3.92
2023-05-16T11:15:36.148Z,4.40
2023-05-16T11:20:37.802Z,5.05
2023-05-16T11:23:17.648Z,5.13
2023-05-16T11:25:59.107Z,3.22
2023-05-16T11:28:28.434Z,7.78
2023-05-16T11:30:58.827Z,3.25
2023-05-16T11:33:27.993Z,4.60
2023-05-16T11:38:44.174Z,4.05
2023-05-16T11:41:12.098Z,3.42
2023-05-16T11:43:45.381Z,5.18
2023-05-16T11:46:15.323Z,2.80
2023-05-16T11:48:44.083Z,2.60
2023-05-16T11:51:11.592Z,5.60
2023-05-16T11:53:38.913Z,4.45
2023-05-16T11:56:08.578Z,3.58
2023-05-16T11:58:37.194Z,5.10
2023-05-16T12:01:05.882Z,4.28
2023-05-16T12:03:35.919Z,5.85
2023-05-16T12:06:08.358Z,6.20
2023-05-16T12:08:36.154Z,8.18
2023-05-16T12:11:03.877Z,10.35
2023-05-16T12:13:31.629Z,7.55
2023-05-16T12:16:01.540Z,3.70
2023-05-16T12:18:29.305Z,2.28
2023-05-16T12:20:56.889Z,2.53
2023-05-16T12:23:27.041Z,3.35
2023-05-16T12:25:57.348Z,4.20
2023-05-16T12:28:24.705Z,3.72
2023-05-16T12:30:52.089Z,9.32
2023-05-16T12:33:19.570Z,4.43
2023-05-16T12:35:48.269Z,2.17
2023-05-16T12:38:17.734Z,3.65
2023-05-16T12:40:45.752Z,2.22
2023-05-16T12:43:17.723Z,1.42
2023-05-16T12:45:55.818Z,2.03
2023-05-16T12:48:24.552Z,2.17
2023-05-16T12:50:52.049Z,4.43
2023-05-16T12:53:19.748Z,5.07
2023-05-16T12:55:50.204Z,6.32
2023-05-16T12:58:17.977Z,7.22
2023-05-16T13:00:45.511Z,11.55
2023-05-16T13:03:13.320Z,13.95
2023-05-16T13:05:41.443Z,11.48
2023-05-16T13:08:08.844Z,8.73
2023-05-16T13:10:36.433Z,5.03
2023-05-16T13:13:04.845Z,8.80
2023-05-16T13:15:32.518Z,3.88
2023-05-16T13:20:27.288Z,9.48
2023-05-16T13:22:54.603Z,8.25
2023-05-16T13:25:21.920Z,4.40
2023-05-16T13:27:49.712Z,5.05
2023-05-16T13:32:47.395Z,7.95
2023-05-16T13:35:14.647Z,6.07
2023-05-16T13:37:41.941Z,4.15
2023-05-16T13:40:10.742Z,9.65
2023-05-16T13:42:38.933Z,5.53
2023-05-16T13:45:07.272Z,3.90
2023-05-16T13:47:34.960Z,4.75
2023-05-16T13:50:09.482Z,3.60
2023-05-16T13:52:38.442Z,5.13
2023-05-16T13:55:06.481Z,5.03
2023-05-16T13:57:33.907Z,4.53
2023-05-16T14:00:24.873Z,4.57
2023-05-16T14:02:48.751Z,4.82
2023-05-16T14:05:16.173Z,6.47
2023-05-16T14:07:45.359Z,4.28
2023-05-16T14:10:14.126Z,4.82
2023-05-16T14:12:41.548Z,8.15
2023-05-16T14:15:09.398Z,5.10
2023-05-16T14:17:36.789Z,9.23
2023-05-16T14:20:09.703Z,4.35
2023-05-16T14:22:37.816Z,8.45
2023-05-16T14:25:06.567Z,9.73
2023-05-16T14:27:34.744Z,7.80
2023-05-16T14:30:02.287Z,9.43
2023-05-16T14:32:31.667Z,12.45
2023-05-16T14:34:59.047Z,6.97
2023-05-16T14:37:26.416Z,8.05
2023-05-16T14:39:54.807Z,6.72
2023-05-16T14:42:22.172Z,7.82
2023-05-16T14:44:49.986Z,6.13
2023-05-16T14:47:17.387Z,7.03
2023-05-16T14:49:44.729Z,6.38
2023-05-16T14:52:11.925Z,5.75
2023-05-16T14:54:39.527Z,11.27
2023-05-16T14:57:07.647Z,8.98
2023-05-16T14:59:35.209Z,5.25
2023-05-16T15:02:02.843Z,7.22
2023-05-16T15:04:30.311Z,7.00
2023-05-16T15:06:57.647Z,5.68
2023-05-16T15:09:25.093Z,3.97
2023-05-16T15:11:52.626Z,4.82
2023-05-16T15:14:19.882Z,6.63
2023-05-16T15:16:48.270Z,7.80
2023-05-16T15:19:15.922Z,4.97
2023-05-16T15:21:43.331Z,8.70
2023-05-16T15:24:10.883Z,6.57
2023-05-16T15:26:39.589Z,10.98
2023-05-16T15:29:06.916Z,10.85
2023-05-16T15:31:34.306Z,7.45
2023-05-16T15:34:01.612Z,8.63
2023-05-16T15:36:29.338Z,6.40
2023-05-16T15:38:56.567Z,5.05
2023-05-16T15:41:37.240Z,6.53
2023-05-16T15:44:11.166Z,8.10
2023-05-16T15:46:39.109Z,6.88
2023-05-16T15:49:06.676Z,6.25
2023-05-16T15:51:33.943Z,8.20
2023-05-16T15:54:02.492Z,7.97
2023-05-16T15:56:29.838Z,10.35
2023-05-16T15:58:57.341Z,7.28
2023-05-16T16:01:24.681Z,12.52
2023-05-16T16:03:52.222Z,12.60
2023-05-16T16:06:19.853Z,10.82
2023-05-16T16:08:47.270Z,7.53
2023-05-16T16:11:14.547Z,7.75
2023-05-16T16:13:42.071Z,8.43
2023-05-16T16:16:09.382Z,5.47
2023-05-16T16:18:36.713Z,6.70
2023-05-16T16:21:04.291Z,4.95
2023-05-16T16:23:32.211Z,7.15
2023-05-16T16:25:59.623Z,8.02
2023-05-16T16:28:27.381Z,9.20
2023-05-16T16:30:54.846Z,5.45
2023-05-16T16:33:22.165Z,7.22
2023-05-16T16:35:49.619Z,7.70
2023-05-16T16:38:17.785Z,8.90
2023-05-16T16:40:45.183Z,6.85
2023-05-16T16:43:12.544Z,5.30
2023-05-16T16:45:39.877Z,6.50
2023-05-16T16:48:09.456Z,5.88
2023-05-16T16:50:36.891Z,4.82
2023-05-16T16:53:04.848Z,5.38
2023-05-16T16:55:32.372Z,6.55
2023-05-16T16:57:59.714Z,6.20
2023-05-16T17:00:27.755Z,7.85
2023-05-16T17:02:55.429Z,5.30
2023-05-16T17:05:22.819Z,6.88
2023-05-16T17:07:50.754Z,5.05
2023-05-16T17:10:18.801Z,6.72
2023-05-16T17:12:49.578Z,5.00
2023-05-16T17:15:20.211Z,4.78
2023-05-16T17:17:49.556Z,4.88
2023-05-16T17:20:16.987Z,6.45
2023-05-16T17:22:45.083Z,8.77
2023-05-16T17:25:12.810Z,4.68
2023-05-16T17:27:41.149Z,8.93
2023-05-16T17:30:10.898Z,6.18
2023-05-16T17:32:39.542Z,8.73
2023-05-16T17:35:07.797Z,6.32
2023-05-16T17:37:35.199Z,8.70
2023-05-16T17:40:02.605Z,6.97
2023-05-16T17:42:30.884Z,8.35
2023-05-16T17:44:58.251Z,8.55
2023-05-16T17:47:26.071Z,6.00
2023-05-16T17:52:22.464Z,6.70
2023-05-16T17:54:49.854Z,7.30
2023-05-16T17:57:17.170Z,6.15
2023-05-16T17:59:44.646Z,7.60
2023-05-16T18:02:15.538Z,12.80
2023-05-16T18:04:43.420Z,8.85
2023-05-16T18:07:10.926Z,9.32
2023-05-16T18:09:38.244Z,8.82
2023-05-16T18:12:06.053Z,6.45
2023-05-16T18:14:33.454Z,7.75
2023-05-16T18:17:00.881Z,6.93
2023-05-16T18:19:28.310Z,6.25
2023-05-16T18:21:55.811Z,8.18
2023-05-16T18:24:23.087Z,8.32
2023-05-16T18:26:51.125Z,8.18
2023-05-16T18:29:18.537Z,10.75
2023-05-16T18:31:46.055Z,7.63
2023-05-16T18:34:13.424Z,8.35
2023-05-16T18:36:40.939Z,7.95
2023-05-16T18:39:10.340Z,6.68
2023-05-16T18:41:37.749Z,9.73
2023-05-16T18:44:05.148Z,6.28
2023-05-16T18:46:35.558Z,9.30
2023-05-16T18:49:02.940Z,7.35
2023-05-16T18:51:30.427Z,6.00
2023-05-16T18:53:57.809Z,7.32
2023-05-16T18:56:25.086Z,7.22
2023-05-16T18:58:52.410Z,5.53
2023-05-16T19:01:22.707Z,7.22
2023-05-16T19:03:50.346Z,8.50
2023-05-16T19:06:17.846Z,9.70
2023-05-16T19:08:48.008Z,9.43
2023-05-16T19:11:17.805Z,5.70
2023-05-16T19:13:46.173Z,7.85
2023-05-16T19:16:16.478Z,6.35
2023-05-16T19:18:43.947Z,5.78
2023-05-16T19:21:13.716Z,7.05
2023-05-16T19:23:41.265Z,6.20
2023-05-16T19:26:08.581Z,7.18
2023-05-16T19:28:35.855Z,7.13
2023-05-16T19:31:03.257Z,8.85
2023-05-16T19:33:30.462Z,11.18
2023-05-16T19:35:58.907Z,10.40
2023-05-16T19:38:27.010Z,12.38
2023-05-16T19:40:54.844Z,9.68
2023-05-16T19:45:49.806Z,10.38
2023-05-16T19:50:44.800Z,8.70
2023-05-16T19:53:12.163Z,8.25
2023-05-16T19:55:39.676Z,12.77
2023-05-16T19:58:07.263Z,9.13
2023-05-16T20:00:34.589Z,10.95
2023-05-16T20:03:02.022Z,9.20
2023-05-16T20:05:29.764Z,8.60
2023-05-16T20:07:57.516Z,8.32
2023-05-16T20:10:25.100Z,8.23
2023-05-16T20:12:52.358Z,7.85
2023-05-16T20:15:19.656Z,8.15
2023-05-16T20:17:47.022Z,8.38
2023-05-16T20:20:14.365Z,7.68
2023-05-16T20:22:42.096Z,8.73
2023-05-16T20:25:10.668Z,7.45
2023-05-16T20:27:38.661Z,7.25
2023-05-16T20:32:34.853Z,6.75
2023-05-16T20:35:04.586Z,7.15
2023-05-16T20:37:33.048Z,8.30
2023-05-16T20:40:00.443Z,8.05
2023-05-16T20:42:27.883Z,7.32
2023-05-16T20:44:55.145Z,8.55
2023-05-16T20:47:22.419Z,7.68
2023-05-16T20:49:49.809Z,8.50
2023-05-16T20:52:17.192Z,6.68
2023-05-16T20:54:44.480Z,9.05
2023-05-16T20:57:11.870Z,7.47
2023-05-16T20:59:39.219Z,8.23
2023-05-16T21:02:06.552Z,8.32
2023-05-16T21:04:33.940Z,9.65
2023-05-16T21:07:01.273Z,9.63
2023-05-16T21:09:28.641Z,8.90
2023-05-16T21:11:56.239Z,9.68
2023-05-16T21:14:23.521Z,5.70
2023-05-16T21:16:52.432Z,8.55
2023-05-16T21:19:19.924Z,6.97
2023-05-16T21:21:47.296Z,6.85
2023-05-16T21:24:14.696Z,8.15
2023-05-16T21:26:42.075Z,8.63
2023-05-16T21:29:09.356Z,10.90
2023-05-16T21:31:36.742Z,8.07
2023-05-16T21:34:04.193Z,9.63
2023-05-16T21:36:31.666Z,7.55
2023-05-16T21:38:58.985Z,7.28
2023-05-16T21:41:27.061Z,7.50
2023-05-16T21:43:54.511Z,6.82
2023-05-16T21:46:21.924Z,8.57
2023-05-16T21:48:49.350Z,8.88
2023-05-16T21:51:16.905Z,7.30
2023-05-16T21:53:46.950Z,7.00
2023-05-16T21:56:14.459Z,7.50
2023-05-16T21:58:42.766Z,7.70
2023-05-16T22:01:10.505Z,8.25
2023-05-16T22:03:37.876Z,7.80
2023-05-16T22:06:05.558Z,7.60
2023-05-16T22:08:32.938Z,9.73
2023-05-16T22:11:00.516Z,7.57
2023-05-16T22:13:27.810Z,8.18
2023-05-16T22:16:03.910Z,9.88
2023-05-16T22:18:33.376Z,6.97
2023-05-16T22:21:01.915Z,6.57
2023-05-16T22:23:29.312Z,7.43
2023-05-16T22:25:56.721Z,7.82
2023-05-16T22:28:24.173Z,7.20
2023-05-16T22:30:51.601Z,7.97
2023-05-16T22:33:19.067Z,9.63
2023-05-16T22:35:46.594Z,9.13
2023-05-16T22:38:13.904Z,9.73
2023-05-16T22:40:41.580Z,11.55
2023-05-16T22:43:08.978Z,10.15
2023-05-16T22:45:36.377Z,11.25
2023-05-16T22:48:04.127Z,12.80
2023-05-16T22:52:58.819Z,10.70
2023-05-16T22:55:26.551Z,11.88
2023-05-16T22:57:57.369Z,13.88
2023-05-16T23:00:24.790Z,10.38
2023-05-16T23:02:52.901Z,12.98
2023-05-16T23:05:20.710Z,11.32
2023-05-16T23:07:50.532Z,15.13
2023-05-16T23:10:17.930Z,13.25
2023-05-16T23:12:45.268Z,18.60
2023-05-16T23:15:13.716Z,18.17
2023-05-16T23:17:41.219Z,17.35
2023-05-16T23:20:09.058Z,18.08
2023-05-16T23:22:36.363Z,22.90
2023-05-16T23:25:04.146Z,20.10
2023-05-16T23:27:32.073Z,21.30
2023-05-16T23:34:53.856Z,18.70
2023-05-16T23:37:21.345Z,18.08
2023-05-16T23:39:48.636Z,17.98
2023-05-16T23:42:16.018Z,18.58
2023-05-16T23:44:43.412Z,19.13
2023-05-16T23:47:11.095Z,15.15
2023-05-16T23:49:38.398Z,12.05
2023-05-16T23:52:06.400Z,13.05
2023-05-16T23:57:01.648Z,11.90
2023-05-16T23:59:29.064Z,16.58
